• Join FlightAware (Why Join?)
  • Login
  • US Flag 
Trick or treat! (Boo!!) 
07:01PM EDT


 

Airport Tracker/Info


-or-


 

Live Flight TrackerFlight Track Log ✈ WIG1064 ✈ 11-Jun-2013 ✈ KMHT - KBTV

Flight Track Log - Related Links

Times and Time Zones

All times are in EDT time to prevent confusion due to time zone crossing. See the WIG1064 flight status page for this flight to view local times or setup timezone preferences in your user account.

Time Position Orientation Groundspeed Altitude Reporting Facility
EDT Latitude Longitude Course Direction KTS MPH feet Rate Location/Type
08:47AM 42.9500 -71.4333 324° Northwest 123 142 1,100  Level KA90
08:48AM 42.9833 -71.4667 324° Northwest 167 192 2,600 1,200 Climbing KA90
08:49AM 43.0167 -71.5167 312° West 181 208 3,700 1,200 Climbing KA90
08:51AM 43.0667 -71.5500 334° Northwest 184 212 5,200 1,140 Climbing KA90
08:52AM 43.1167 -71.5833 334° Northwest 186 214 6,200 1,200 Climbing KA90
08:52AM 43.1456 -71.6261 313° West 185 213 7,400 1,020 Climbing Boston Center
08:53AM 43.1792 -71.6656 319° Northwest 185 213 8,100 300 Climbing Boston Center
08:54AM 43.2275 -71.7278 317° Northwest 196 226 8,100  Level Boston Center
08:55AM 43.2694 -71.7700 324° Northwest 211 243 8,200  Climbing Boston Center
08:56AM 43.3242 -71.8236 325° Northwest 225 259 8,100  Descending Boston Center
08:57AM 43.3661 -71.8747 318° Northwest 230 265 8,200  Climbing Boston Center
08:58AM 43.4164 -71.9283 322° Northwest 230 265 8,100 -60 Descending Boston Center
08:59AM 43.4583 -71.9911 313° West 225 259 8,100  Level Boston Center
09:00AM 43.5042 -72.0481 318° Northwest 225 259 8,100  Level Boston Center
09:01AM 43.5503 -72.1078 317° Northwest 225 259 8,100  Level Boston Center
09:02AM 43.5900 -72.1706 311° West 220 253 8,100  Level Boston Center
09:03AM 43.6339 -72.2306 315° West 215 247 8,100  Level Boston Center
09:04AM 43.6800 -72.2881 318° Northwest 215 247 8,100  Level Boston Center
09:05AM 43.7236 -72.3481 315° West 220 253 8,100  Level Boston Center
09:06AM 43.7694 -72.4086 316° Northwest 225 259 8,100  Level Boston Center
09:07AM 43.8194 -72.4572 325° Northwest 220 253 8,100  Level Boston Center
09:08AM 43.8611 -72.5178 314° West 220 253 8,100  Level Boston Center
09:09AM 43.9069 -72.5783 316° Northwest 215 247 8,100 -60 Level Boston Center
09:10AM 43.9550 -72.6392 318° Northwest 215 247 8,000 -60 Descending Boston Center
09:11AM 43.9986 -72.6997 315° West 215 247 8,000  Level Boston Center
09:12AM 44.0442 -72.7578 318° Northwest 220 253 8,000  Level Boston Center
09:13AM 44.0961 -72.8072 326° Northwest 225 259 8,000 -300 Level Boston Center
09:14AM 44.1458 -72.8597 323° Northwest 225 259 7,500 -480 Descending Boston Center
09:15AM 44.2147 -72.8775 350° North 232 267 7,100 -300 Descending Boston Center
09:16AM 44.2731 -72.8953 348° North 238 274 7,000 -360 Descending Boston Center
09:17AM 44.3375 -72.9189 345° North 238 274 6,400 -780 Descending Boston Center
09:18AM 44.3978 -72.9456 342° North 243 280 5,500 -780 Descending Boston Center
09:19AM 44.4664 -72.9839 338° Northwest 238 274 4,900 -1,080 Descending Boston Center
09:20AM 44.5097 -73.0600 309° West 238 274 3,400 -1,500 Descending Boston Center
09:21AM 44.5300 -73.1419 289° West 237 273 1,900 -1,200 Descending Boston Center
09:22AM 44.5028 -73.1822 227° Southwest 151 174 1,000 -780 Descending Boston Center
09:23AM 44.4778 -73.1617 150° Southeast 94 108 400 -300 Descending Boston Center
09:24AM 44.4675 -73.1469 134° Southeast 67 77 400  Level Boston Center
09:26AM 44.4667 -73.1500 270° West  Level FlightAware Approximate